Time;durP1;ratioP1;P1;durP2;ratioP2;P2;SDS_P1;SDS_P2;PMS_P1;PMS_P2;Temp;Humidity;BMP_temperature;BMP_pressure;BME280_temperature;BME280_humidity;BME280_pressure;Samples;Min_cycle;Max_cycle;Signal;HPM_P1;HPM_P2
2022/12/21 08:51:16;;;;;;;2.80;1.60;;;;;;;15.73;41.39;96091.66;2106872;22;20411;-54
2022/12/21 08:52:17;;;;;;;2.53;1.35;;;;;;;15.64;41.45;96090.47;2097268;28;20041;-51
2022/12/21 10:17:23;;;;;;;6.53;3.33;;;;;;;6.60;83.31;95993.78;2111642;22;20419;-56
2022/12/21 10:18:38;;;;;;;8.40;3.35;;;;;;;6.64;83.40;95995.38;2105229;28;20052;-56
2022/12/21 10:20:03;;;;;;;6.30;3.50;;;;;;;6.72;83.31;96006.31;2104745;28;20052;-56
2022/12/21 10:21:16;;;;;;;8.10;3.88;;;;;;;6.73;83.39;95995.06;2104698;28;20056;-54
2022/12/21 10:22:17;;;;;;;8.32;4.25;;;;;;;6.88;83.41;96005.81;2095670;28;20040;-54
2022/12/21 10:23:26;;;;;;;8.38;3.42;;;;;;;6.95;83.29;95999.53;2096076;28;20500;-54
2022/12/21 10:24:40;;;;;;;6.20;3.92;;;;;;;6.97;82.76;95997.75;2103159;28;20056;-55
2022/12/21 10:25:44;;;;;;;7.97;4.20;;;;;;;6.98;82.16;96000.31;2089729;28;20115;-54
2022/12/21 10:26:45;;;;;;;6.70;3.88;;;;;;;6.96;81.97;96009.00;2081410;28;20060;-54
2022/12/21 10:27:54;;;;;;;7.65;3.95;;;;;;;6.88;82.79;96001.50;2096930;28;20049;-54
2022/12/21 10:29:02;;;;;;;7.70;3.60;;;;;;;6.94;82.41;96000.44;2105247;28;20044;-55
2022/12/21 10:30:04;;;;;;;10.40;4.22;;;;;;;6.91;82.48;95996.22;2104085;28;20478;-56
2022/12/21 10:31:09;;;;;;;6.93;3.85;;;;;;;7.00;81.79;95997.66;2095956;28;20061;-55
2022/12/21 10:32:11;;;;;;;7.18;3.97;;;;;;;6.82;82.01;96001.69;2104842;28;20044;-55
2022/12/21 10:33:12;;;;;;;6.72;3.80;;;;;;;6.77;82.84;95996.69;2096151;28;20526;-56
2022/12/21 10:34:18;;;;;;;10.95;3.95;;;;;;;6.89;82.56;95994.59;2096121;28;20044;-54
2022/12/21 10:35:27;;;;;;;15.45;4.10;;;;;;;6.95;82.33;95999.53;2105058;28;20040;-56
2022/12/21 10:36:35;;;;;;;8.27;4.05;;;;;;;6.96;82.12;95985.75;2095737;28;20103;-56
2022/12/21 10:37:36;;;;;;;6.13;3.63;;;;;;;7.00;82.52;95989.91;2098282;28;20037;-54
2022/12/21 10:38:37;;;;;;;7.78;3.97;;;;;;;7.07;82.88;95984.50;2104465;28;20423;-56
2022/12/21 10:39:39;;;;;;;8.52;4.53;;;;;;;7.17;81.73;95985.03;2104836;28;20033;-54
2022/12/21 10:40:40;;;;;;;6.25;4.10;;;;;;;7.21;81.73;95983.19;2096433;28;20338;-56
2022/12/21 10:41:43;;;;;;;6.60;4.00;;;;;;;7.26;81.27;95976.13;2096502;28;20033;-54
2022/12/21 10:42:45;;;;;;;8.73;4.55;;;;;;;7.30;80.82;95993.22;2105034;28;20052;-53
2022/12/21 10:43:48;;;;;;;7.18;4.20;;;;;;;7.39;80.61;95982.56;2096296;28;20048;-54
2022/12/21 10:44:49;;;;;;;11.35;4.22;;;;;;;7.51;80.32;95983.84;2096826;28;20056;-54
2022/12/21 10:45:50;;;;;;;8.30;4.63;;;;;;;7.56;79.83;95971.59;2096620;28;20064;-53
2022/12/21 10:46:51;;;;;;;8.63;4.45;;;;;;;7.60;79.49;95975.78;2104688;28;20051;-55
2022/12/21 10:47:53;;;;;;;7.65;4.25;;;;;;;7.27;79.38;95985.53;2105537;28;20044;-55
2022/12/21 10:48:56;;;;;;;7.57;4.30;;;;;;;7.29;79.23;95969.09;2104974;28;20075;-55
2022/12/21 10:50:09;;;;;;;7.32;4.20;;;;;;;7.43;78.96;95986.72;2104467;28;20044;-55
2022/12/21 10:51:41;;;;;;;9.23;4.25;;;;;;;7.49;78.33;95971.00;2104766;28;20051;-55
2022/12/21 10:52:48;;;;;;;9.35;4.38;;;;;;;7.76;77.78;95981.25;2101140;28;20048;-55
2022/12/21 10:54:03;;;;;;;9.15;4.53;;;;;;;7.70;77.62;95976.31;2100803;28;20048;-56
2022/12/21 10:55:17;;;;;;;6.32;4.20;;;;;;;7.80;77.25;95974.22;2105035;28;20048;-56
2022/12/21 10:56:18;;;;;;;7.80;4.53;;;;;;;7.87;77.48;95973.09;2104671;28;20051;-53
2022/12/21 10:57:25;;;;;;;10.15;4.80;;;;;;;8.07;77.47;95974.94;2089770;28;20054;-55
2022/12/21 10:58:30;;;;;;;11.00;4.75;;;;;;;8.31;76.98;95973.16;2089353;28;20065;-55
2022/12/21 10:59:38;;;;;;;13.05;4.40;;;;;;;8.43;76.04;95977.91;2096832;28;20037;-55
2022/12/21 11:00:40;;;;;;;12.82;4.82;;;;;;;8.53;75.69;95966.28;2091566;28;20392;-54
2022/12/21 11:01:41;;;;;;;13.85;5.45;;;;;;;8.24;75.58;95963.97;2088424;28;20056;-54
2022/12/21 11:02:43;;;;;;;11.98;5.57;;;;;;;8.51;75.06;95969.84;2104820;28;20384;-59
2022/12/21 11:03:44;;;;;;;10.63;5.70;;;;;;;8.53;74.44;95968.88;2096430;28;20052;-58
2022/12/21 11:04:45;;;;;;;10.63;5.85;;;;;;;8.36;74.90;95968.66;2095660;28;20479;-58
2022/12/21 11:05:46;;;;;;;12.95;6.25;;;;;;;8.49;74.83;95958.69;2105192;28;20040;-59
2022/12/21 11:07:05;;;;;;;16.17;7.10;;;;;;;8.31;75.02;95950.72;2105740;28;20048;-60
2022/12/21 11:08:18;;;;;;;13.70;6.88;;;;;;;8.16;75.89;95959.91;2103645;28;20036;-60
2022/12/21 11:09:36;;;;;;;13.45;6.93;;;;;;;8.32;75.23;95961.91;2103773;28;20415;-60
2022/12/21 11:10:38;;;;;;;14.48;7.13;;;;;;;8.41;74.79;95959.00;2105421;28;20040;-60
2022/12/21 11:11:39;;;;;;;13.23;7.95;;;;;;;8.31;75.25;95957.63;2105252;28;20036;-60
2022/12/21 11:12:48;;;;;;;15.68;7.80;;;;;;;8.05;75.39;95949.13;2105386;28;20056;-63
2022/12/21 11:13:56;;;;;;;13.65;7.88;;;;;;;8.02;76.04;95953.56;2104744;28;20044;-64
2022/12/21 11:14:57;;;;;;;11.82;6.90;;;;;;;8.07;75.29;95955.09;2089488;28;20037;-63
2022/12/21 11:16:07;;;;;;;13.30;6.97;;;;;;;8.03;75.10;95950.94;2079458;28;20061;-63
2022/12/21 11:17:21;;;;;;;13.25;7.88;;;;;;;8.04;75.34;95949.19;2089442;28;20057;-63
2022/12/21 11:18:40;;;;;;;14.68;7.70;;;;;;;7.92;75.22;95948.75;2098452;28;20044;-63
2022/12/21 11:19:41;;;;;;;13.63;7.53;;;;;;;8.01;74.92;95946.72;2103911;28;20430;-63
2022/12/21 11:20:42;;;;;;;12.15;7.13;;;;;;;7.95;74.82;95951.22;2105206;28;20032;-63
2022/12/21 11:21:53;;;;;;;12.63;8.05;;;;;;;8.08;74.69;95950.78;2095942;28;20040;-63
2022/12/21 11:22:56;;;;;;;10.85;6.07;;;;;;;8.04;74.97;95944.84;2097373;28;20464;-75
2022/12/21 11:24:16;;;;;;;13.10;7.03;;;;;;;7.84;74.77;95949.94;2104436;28;20040;-74
2022/12/21 11:25:19;;;;;;;10.60;6.68;;;;;;;7.94;74.66;95940.94;2098204;28;20041;-75
2022/12/21 11:26:20;;;;;;;11.40;6.05;;;;;;;7.99;75.51;95939.00;2096412;28;20037;-74
2022/12/21 11:27:22;;;;;;;10.80;6.28;;;;;;;7.97;75.08;95940.00;2096460;28;20495;-71
2022/12/21 11:28:24;;;;;;;8.88;5.55;;;;;;;8.03;74.57;95937.16;2083827;28;20057;-75
2022/12/21 11:29:45;;;;;;;11.57;6.07;;;;;;;8.13;73.95;95941.94;2098629;28;20056;-73
2022/12/21 11:30:58;;;;;;;12.57;5.72;;;;;;;8.09;73.42;95936.91;2098544;28;20053;-76
2022/12/21 11:32:04;;;;;;;9.68;5.43;;;;;;;8.07;73.74;95934.41;2083849;28;20045;-75
2022/12/21 11:33:15;;;;;;;8.63;5.43;;;;;;;7.86;74.40;95932.63;2084940;28;20049;-76
2022/12/21 11:34:57;;;;;;;11.48;5.45;;;;;;;7.77;74.31;95938.97;2091773;28;20496;-75
2022/12/21 11:36:15;;;;;;;11.63;5.78;;;;;;;7.72;74.55;95938.28;2072907;28;20057;-74
2022/12/21 11:37:35;;;;;;;8.65;5.68;;;;;;;7.72;74.52;95933.13;2073115;28;20046;-75
2022/12/21 11:38:37;;;;;;;11.60;5.75;;;;;;;7.59;74.86;95940.50;2093052;28;20048;-74
2022/12/21 11:39:39;;;;;;;10.80;5.82;;;;;;;7.60;74.19;95939.59;2099052;28;20056;-74
2022/12/21 11:40:55;;;;;;;9.75;5.35;;;;;;;7.79;75.03;95942.34;2090753;28;20059;-73
2022/12/21 11:41:57;;;;;;;9.35;4.90;;;;;;;7.92;73.67;95932.41;2086520;28;20057;-74
2022/12/21 11:42:57;;;;;;;14.00;5.15;;;;;;;7.83;73.81;95935.31;2098546;28;20060;-60
2022/12/21 11:43:59;;;;;;;10.98;4.82;;;;;;;7.84;74.80;95926.69;2099279;28;20535;-60
2022/12/21 11:45:09;;;;;;;8.90;5.45;;;;;;;7.87;74.07;95931.72;2099112;28;20041;-59
2022/12/21 11:46:17;;;;;;;10.35;4.65;;;;;;;7.56;74.38;95934.59;2098167;28;20488;-60
2022/12/21 11:47:25;;;;;;;6.53;4.20;;;;;;;7.69;73.83;95928.91;2090418;28;20041;-59
2022/12/21 11:48:38;;;;;;;11.60;5.50;;;;;;;7.58;74.41;95923.31;2091445;28;20357;-60
2022/12/21 11:50:10;;;;;;;8.55;4.40;;;;;;;7.65;74.02;95932.53;2097924;28;20554;-59
2022/12/21 11:51:26;;;;;;;6.70;3.47;;;;;;;7.66;73.89;95930.78;2098107;28;20040;-60
2022/12/21 11:52:41;;;;;;;6.57;3.53;;;;;;;7.41;74.73;95928.25;2098560;28;20040;-59
2022/12/21 11:54:16;;;;;;;9.73;4.40;;;;;;;7.44;74.51;95931.56;2097949;28;20044;-59
2022/12/21 11:55:19;;;;;;;8.45;3.90;;;;;;;7.48;74.69;95927.13;2094431;28;20032;-59
2022/12/21 11:56:28;;;;;;;5.93;3.80;;;;;;;7.43;75.14;95937.63;2098058;28;20036;-59
2022/12/21 11:57:36;;;;;;;6.13;3.42;;;;;;;7.41;75.10;95936.00;2090127;28;20095;-63
2022/12/21 11:58:46;;;;;;;8.77;3.78;;;;;;;7.25;75.38;95935.69;2091561;28;20063;-63
2022/12/21 12:00:08;;;;;;;7.72;3.80;;;;;;;7.34;75.04;95919.84;2098959;28;20048;-63
2022/12/21 12:01:52;;;;;;;8.73;4.05;;;;;;;7.41;75.46;95936.84;2097730;28;20455;-63
2022/12/21 12:03:05;;;;;;;6.43;3.78;;;;;;;7.45;75.01;95937.56;2097776;28;20472;-59
2022/12/21 12:04:20;;;;;;;8.15;4.47;;;;;;;7.46;75.17;95934.09;2097885;28;20043;-59
2022/12/21 12:06:00;;;;;;;7.40;3.92;;;;;;;7.56;76.04;95935.44;2097798;28;20044;-60
2022/12/21 12:07:06;;;;;;;8.05;3.70;;;;;;;7.64;75.30;95932.56;2086424;28;20443;-59
2022/12/21 12:08:40;;;;;;;6.45;3.80;;;;;;;7.64;75.15;95927.41;2097325;28;20029;-60
2022/12/21 12:09:57;;;;;;;5.47;3.40;;;;;;;7.67;75.86;95935.03;2096855;28;20052;-59
2022/12/21 12:11:36;;;;;;;5.85;3.08;;;;;;;7.67;75.50;95933.31;2093392;28;20048;-59
2022/12/21 12:13:03;;;;;;;5.30;3.60;;;;;;;7.63;75.35;95925.72;2097102;28;20490;-60
2022/12/21 12:14:08;;;;;;;9.05;3.30;;;;;;;7.73;74.80;95929.66;2088795;28;20032;-59
2022/12/21 12:15:13;;;;;;;6.97;3.35;;;;;;;7.81;75.06;95919.03;2082796;28;20046;-59
2022/12/21 12:16:25;;;;;;;4.68;3.15;;;;;;;7.91;75.41;95926.41;2089502;28;20036;-59
2022/12/21 12:17:49;;;;;;;6.50;3.58;;;;;;;8.09;74.27;95926.56;2090444;28;20052;-59
2022/12/21 12:19:02;;;;;;;6.60;3.25;;;;;;;8.05;73.78;95932.78;2097483;28;20055;-59
2022/12/21 12:20:33;;;;;;;4.90;2.88;;;;;;;8.09;73.65;95924.81;2089625;28;20041;-59
2022/12/21 12:21:40;;;;;;;9.07;3.50;;;;;;;8.08;73.79;95925.75;2074394;28;20042;-59
2022/12/21 12:23:01;;;;;;;7.00;3.15;;;;;;;8.25;73.60;95929.41;2097310;28;20048;-59
2022/12/21 12:24:09;;;;;;;6.82;3.00;;;;;;;8.35;73.08;95925.56;2098600;28;20055;-59
2022/12/21 12:25:16;;;;;;;7.20;3.45;;;;;;;7.86;74.27;95930.06;2097276;28;20051;-59
2022/12/21 12:26:18;;;;;;;6.43;2.92;;;;;;;7.98;74.50;95927.00;2089601;28;20037;-59
2022/12/21 12:27:51;;;;;;;5.68;2.78;;;;;;;7.99;74.01;95930.41;2097049;28;20400;-59
2022/12/21 12:29:00;;;;;;;5.18;2.70;;;;;;;7.95;74.70;95929.69;2098012;28;20044;-60
2022/12/21 12:30:08;;;;;;;5.35;2.10;;;;;;;7.85;75.63;95923.19;2092729;28;20052;-59
2022/12/21 12:31:34;;;;;;;4.90;2.60;;;;;;;7.81;75.50;95925.06;2091339;28;20045;-60
2022/12/21 12:32:53;;;;;;;4.57;2.47;;;;;;;7.71;77.08;95928.88;2097656;28;20075;-59
2022/12/21 12:34:13;;;;;;;4.18;2.13;;;;;;;7.81;76.51;95919.88;2097350;28;20060;-60
2022/12/21 12:35:51;;;;;;;3.55;1.90;;;;;;;7.80;77.05;95931.09;2098654;28;20043;-59
2022/12/21 12:37:01;;;;;;;4.75;1.95;;;;;;;7.79;76.78;95926.84;2099054;28;20033;-59
2022/12/21 12:38:18;;;;;;;3.13;1.65;;;;;;;7.81;77.09;95927.63;2098749;28;20048;-59
2022/12/21 12:39:49;;;;;;;4.63;1.75;;;;;;;7.82;77.98;95931.06;2098929;28;20529;-59
2022/12/21 12:41:24;;;;;;;4.35;1.90;;;;;;;7.82;77.75;95928.47;2074536;28;20046;-59
2022/12/21 12:42:40;;;;;;;3.40;1.35;;;;;;;7.76;78.17;95936.47;2097419;28;20049;-59
2022/12/21 12:44:00;;;;;;;3.67;1.25;;;;;;;7.74;78.01;95929.59;2098471;28;20040;-59
2022/12/21 12:45:29;;;;;;;3.40;1.20;;;;;;;7.92;77.72;95928.06;2097404;28;20415;-59
2022/12/21 12:47:17;;;;;;;2.70;1.20;;;;;;;7.97;77.48;95927.91;2097750;28;20052;-59
2022/12/21 12:48:48;;;;;;;2.25;1.23;;;;;;;7.96;77.38;95939.13;2080091;28;20048;-59
2022/12/21 12:50:01;;;;;;;2.35;1.30;;;;;;;7.94;77.75;95933.19;2088730;28;20075;-60
2022/12/21 12:51:08;;;;;;;5.07;1.73;;;;;;;8.03;78.05;95929.41;2085557;28;20048;-59
2022/12/21 12:52:25;;;;;;;2.92;1.50;;;;;;;8.11;77.71;95933.38;2089936;28;20155;-59
2022/12/21 12:53:42;;;;;;;3.72;1.35;;;;;;;7.99;78.59;95936.41;2090773;28;20114;-60
2022/12/21 12:55:12;;;;;;;3.55;1.15;;;;;;;7.92;78.86;95937.56;2091075;28;20428;-60
2022/12/21 12:56:13;;;;;;;3.17;1.42;;;;;;;7.86;79.07;95927.47;2089298;28;20036;-59
2022/12/21 12:57:32;;;;;;;5.07;1.50;;;;;;;7.86;78.90;95923.13;2097533;28;20475;-60
2022/12/21 12:58:33;;;;;;;3.92;1.52;;;;;;;7.81;79.32;95935.38;2096966;28;20098;-60
2022/12/21 12:59:44;;;;;;;3.47;1.30;;;;;;;7.79;79.83;95923.41;2097291;28;20131;-59
2022/12/21 13:00:51;;;;;;;2.70;1.67;;;;;;;7.79;79.71;95926.00;2098494;28;20048;-59
2022/12/21 13:02:10;;;;;;;2.83;1.50;;;;;;;7.85;79.95;95918.00;2096777;28;20045;-59
2022/12/21 13:03:49;;;;;;;2.47;1.40;;;;;;;7.85;80.71;95915.44;2097224;28;20518;-62
2022/12/21 13:05:05;;;;;;;4.43;1.67;;;;;;;8.02;80.03;95922.53;2097560;28;20471;-60
2022/12/21 13:06:16;;;;;;;3.50;1.60;;;;;;;7.97;80.25;95927.91;2097974;28;20048;-60
2022/12/21 13:07:41;;;;;;;3.35;1.70;;;;;;;7.89;80.14;95930.78;2097007;28;20412;-60
2022/12/21 13:08:58;;;;;;;3.67;1.60;;;;;;;7.88;80.41;95930.81;2097725;28;20048;-60
2022/12/21 13:10:23;;;;;;;2.67;1.58;;;;;;;7.82;80.85;95923.31;2097809;28;20040;-60
2022/12/21 13:11:33;;;;;;;3.58;1.75;;;;;;;7.85;80.86;95923.19;2097220;28;20056;-60
2022/12/21 13:13:08;;;;;;;3.05;1.52;;;;;;;7.70;81.56;95920.28;2097271;28;20043;-60
2022/12/21 13:14:28;;;;;;;3.30;1.55;;;;;;;7.82;81.23;95920.72;2097049;28;20475;-59
2022/12/21 13:15:44;;;;;;;5.78;1.70;;;;;;;7.76;81.49;95924.38;2097069;28;20260;-59
2022/12/21 13:16:56;;;;;;;4.85;1.75;;;;;;;7.80;82.15;95927.69;2097716;28;20052;-59
2022/12/21 13:18:12;;;;;;;3.95;2.00;;;;;;;7.81;82.29;95925.06;2088642;28;20041;-75
2022/12/21 13:19:16;;;;;;;3.78;2.10;;;;;;;7.69;81.82;95930.66;2076270;28;20128;-74
2022/12/21 13:20:18;;;;;;;4.97;1.90;;;;;;;7.73;81.64;95925.34;2081696;28;20092;-73
2022/12/21 13:21:20;;;;;;;3.67;1.55;;;;;;;7.66;81.91;95925.59;2096992;28;20581;-73
2022/12/21 13:22:21;;;;;;;5.13;2.00;;;;;;;7.46;81.64;95928.94;2080694;28;20045;-73
2022/12/21 13:23:36;;;;;;;8.77;3.28;;;;;;;7.59;82.27;95927.59;2072786;28;20029;-72
2022/12/21 13:24:46;;;;;;;4.10;2.08;;;;;;;7.64;82.26;95930.81;2084273;28;20064;-73
2022/12/21 13:25:59;;;;;;;2.95;1.73;;;;;;;7.69;82.65;95930.66;2090120;28;20048;-74
2022/12/21 13:27:03;;;;;;;4.63;2.00;;;;;;;7.69;82.72;95928.91;2082608;28;20037;-74
2022/12/21 13:28:04;;;;;;;3.30;1.70;;;;;;;7.72;82.65;95931.41;2073180;28;20034;-75
2022/12/21 13:29:23;;;;;;;3.10;1.80;;;;;;;7.77;82.11;95927.78;2081176;28;20041;-74
2022/12/21 13:30:24;;;;;;;3.83;1.90;;;;;;;7.79;82.44;95915.66;2091334;28;20473;-73
2022/12/21 13:31:29;;;;;;;2.42;1.45;;;;;;;7.89;82.33;95932.53;2089987;28;20279;-73
2022/12/21 13:32:38;;;;;;;4.07;1.83;;;;;;;7.84;81.64;95930.09;2082108;28;20519;-75
2022/12/21 13:33:51;;;;;;;2.97;1.60;;;;;;;7.88;81.39;95928.22;2075356;28;20046;-76
2022/12/21 13:34:56;;;;;;;3.38;1.50;;;;;;;7.92;81.22;95933.25;2076336;28;20441;-75
2022/12/21 13:36:06;;;;;;;4.22;1.55;;;;;;;7.96;81.22;95939.13;2090425;28;20540;-75
2022/12/21 13:37:10;;;;;;;3.30;1.65;;;;;;;7.99;80.71;95927.81;2089775;28;20040;-75
2022/12/21 13:38:27;;;;;;;3.90;1.40;;;;;;;8.01;80.78;95936.38;2074186;28;20389;-75
2022/12/21 13:39:31;;;;;;;3.38;1.92;;;;;;;8.07;80.35;95939.59;2091904;28;20412;-71
2022/12/21 13:40:37;;;;;;;2.92;1.80;;;;;;;7.93;81.05;95931.50;2081914;28;20076;-76
2022/12/21 13:41:44;;;;;;;3.95;1.50;;;;;;;8.01;80.94;95938.97;2074924;28;20358;-77
2022/12/21 13:42:52;;;;;;;5.18;1.83;;;;;;;7.97;81.04;95932.25;2083537;28;20041;-74
2022/12/21 13:44:26;;;;;;;4.85;1.70;;;;;;;7.95;80.50;95947.78;2090404;28;20508;-76
2022/12/21 13:45:45;;;;;;;3.42;1.58;;;;;;;7.99;80.68;95946.75;2094103;28;20048;-75
2022/12/21 13:46:46;;;;;;;3.10;1.60;;;;;;;7.97;80.43;95940.00;2098444;28;20083;-76
2022/12/21 13:47:47;;;;;;;3.08;1.60;;;;;;;8.06;80.47;95937.88;2098563;28;20396;-74
2022/12/21 13:48:56;;;;;;;4.20;1.65;;;;;;;8.03;80.31;95939.75;2089776;28;20052;-75
2022/12/21 13:50:05;;;;;;;3.70;1.50;;;;;;;8.12;80.37;95940.22;2083635;28;20048;-73
2022/12/21 13:51:29;;;;;;;3.38;1.55;;;;;;;8.14;80.16;95942.75;2082200;28;20045;-75
2022/12/21 13:52:32;;;;;;;4.40;1.60;;;;;;;8.16;79.69;95935.78;2088427;28;20048;-74
2022/12/21 13:53:59;;;;;;;6.15;1.80;;;;;;;8.16;80.02;95938.38;2089845;28;20396;-74
2022/12/21 13:55:19;;;;;;;3.97;1.50;;;;;;;8.23;79.31;95937.22;2097900;28;20044;-74
2022/12/21 13:56:38;;;;;;;3.60;1.65;;;;;;;8.23;79.55;95939.81;2097778;28;20048;-76
2022/12/21 13:57:51;;;;;;;2.65;1.65;;;;;;;8.28;79.73;95939.63;2098276;28;20032;-75
2022/12/21 13:58:59;;;;;;;5.18;1.70;;;;;;;8.26;79.34;95938.84;2097728;28;20114;-74
2022/12/21 14:00:21;;;;;;;3.95;1.70;;;;;;;8.47;79.33;95943.22;2097090;28;20075;-74
2022/12/21 14:01:47;;;;;;;5.30;1.63;;;;;;;8.67;79.04;95946.78;2097786;28;20032;-75
2022/12/21 14:03:07;;;;;;;2.97;1.80;;;;;;;8.68;77.73;95938.09;2097585;28;20078;-77
2022/12/21 14:04:16;;;;;;;2.90;1.50;;;;;;;8.54;77.79;95912.78;2100358;28;20070;-73
2022/12/21 14:05:23;;;;;;;;;;;;;;;8.81;78.17;95931.50;2091207;28;20370;-73
2022/12/21 14:06:54;;;;;;;2.97;1.70;;;;;;;8.84;77.65;95926.19;2098140;28;19912;-75
2022/12/21 14:08:16;;;;;;;3.40;1.65;;;;;;;8.71;77.95;95925.00;2098036;28;20470;-59
2022/12/21 14:09:41;;;;;;;3.50;1.85;;;;;;;8.77;77.65;95922.19;2098254;28;20044;-59
2022/12/21 14:11:24;;;;;;;5.28;1.90;;;;;;;8.89;77.80;95931.19;2098519;28;20032;-59
2022/12/21 14:12:34;;;;;;;4.38;2.40;;;;;;;8.97;77.14;95924.78;2081280;28;20045;-59
2022/12/21 14:13:53;;;;;;;5.30;2.88;;;;;;;8.84;76.50;95927.03;2097890;28;20044;-59
2022/12/21 14:15:22;;;;;;;5.68;2.88;;;;;;;8.81;76.91;95919.41;2098318;28;20396;-59
2022/12/21 14:16:32;;;;;;;;;;;;;;;8.61;76.99;95921.97;2098484;28;20056;-59
2022/12/21 14:17:34;;;;;;;4.75;2.85;;;;;;;8.39;77.74;95911.63;2097291;28;19912;-59
2022/12/21 14:18:37;;;;;;;8.63;3.78;;;;;;;8.39;77.88;95928.00;2077749;28;20050;-59
2022/12/21 14:19:38;;;;;;;6.65;3.60;;;;;;;8.16;78.45;95923.69;2073083;28;20061;-60
2022/12/21 14:20:40;;;;;;;9.60;3.13;;;;;;;8.09;78.67;95917.06;2089784;28;20045;-59
2022/12/21 14:21:46;;;;;;;5.53;3.45;;;;;;;7.99;79.08;95917.47;2097878;28;20052;-60
2022/12/21 14:22:47;;;;;;;6.30;2.95;;;;;;;7.67;79.64;95924.69;2098294;28;20063;-55
2022/12/21 14:23:58;;;;;;;6.38;3.22;;;;;;;7.66;79.93;95923.03;2098482;28;20041;-55
2022/12/21 14:25:00;;;;;;;5.18;3.33;;;;;;;7.53;80.69;95916.63;2098243;28;20349;-55
2022/12/21 14:26:01;;;;;;;4.53;3.15;;;;;;;7.47;80.82;95928.84;2097991;28;20067;-55
2022/12/21 14:27:14;;;;;;;9.27;3.92;;;;;;;7.54;80.24;95931.22;2088263;28;20087;-55
2022/12/21 14:28:44;;;;;;;5.15;3.65;;;;;;;7.51;81.01;95930.44;2084484;28;20037;-74
2022/12/21 14:29:45;;;;;;;5.40;3.50;;;;;;;7.44;80.83;95928.13;2095903;28;20048;-74
2022/12/21 14:31:17;;;;;;;7.20;3.65;;;;;;;7.46;81.19;95929.78;2098267;28;20048;-76
2022/12/21 14:32:19;;;;;;;7.97;3.58;;;;;;;7.45;81.51;95933.22;2097484;28;20036;-75
2022/12/21 14:33:23;;;;;;;6.47;3.45;;;;;;;7.44;81.56;95928.97;2097730;28;20040;-74
2022/12/21 14:34:26;;;;;;;4.72;2.88;;;;;;;7.43;81.55;95929.88;2098106;28;20400;-75
2022/12/21 14:35:40;;;;;;;6.47;3.30;;;;;;;7.37;81.49;95924.91;2089411;28;20403;-75
2022/12/21 14:37:09;;;;;;;6.38;2.88;;;;;;;7.35;81.18;95937.06;2091199;28;20060;-75
2022/12/21 14:38:10;;;;;;;;;;;;;;;7.32;80.96;95937.16;2098605;28;20364;-58
2022/12/21 14:39:13;;;;;;;8.32;3.20;;;;;;;7.26;81.08;95933.03;2097602;28;19923;-59
2022/12/21 14:40:16;;;;;;;5.45;2.83;;;;;;;7.14;81.98;95940.41;2097531;28;20095;-58
2022/12/21 14:41:19;;;;;;;8.02;3.00;;;;;;;7.04;82.48;95940.69;2097939;28;20039;-58
2022/12/21 14:42:42;;;;;;;4.80;2.92;;;;;;;7.03;82.99;95931.28;2097987;28;20037;-58
2022/12/21 14:44:21;;;;;;;5.40;2.72;;;;;;;6.90;82.11;95922.25;2097747;28;20055;-58
2022/12/21 14:45:43;;;;;;;4.60;2.67;;;;;;;6.92;82.72;95937.69;2078615;28;20041;-58
2022/12/21 14:47:16;;;;;;;5.13;2.95;;;;;;;6.76;82.40;95921.88;2079109;28;20049;-58
2022/12/21 14:48:27;;;;;;;7.05;3.42;;;;;;;6.76;82.82;95939.94;2087450;28;20361;-58
2022/12/21 14:49:30;;;;;;;6.68;3.35;;;;;;;6.59;83.26;95933.59;2094738;28;20496;-57
2022/12/21 14:50:37;;;;;;;5.03;3.22;;;;;;;6.52;83.32;95924.38;2096623;28;20040;-58
2022/12/21 14:51:51;;;;;;;7.47;3.58;;;;;;;6.45;83.67;95925.47;2083297;28;20118;-58
2022/12/21 14:52:59;;;;;;;7.13;3.30;;;;;;;6.36;84.06;95929.19;2092374;28;20056;-58
2022/12/21 14:54:09;;;;;;;5.33;2.70;;;;;;;6.29;84.13;95926.84;2092971;28;20063;-59
2022/12/21 14:55:29;;;;;;;4.72;3.00;;;;;;;6.23;85.09;95922.72;2092881;28;20297;-58
2022/12/21 14:56:30;;;;;;;4.65;2.97;;;;;;;6.15;84.76;95924.69;2092725;28;20041;-58
2022/12/21 14:57:49;;;;;;;5.68;2.70;;;;;;;6.10;85.26;95931.72;2089239;28;20048;-58
2022/12/21 14:59:00;;;;;;;5.10;2.53;;;;;;;6.04;85.65;95924.16;2077341;28;20041;-58
2022/12/21 15:00:27;;;;;;;5.78;3.05;;;;;;;6.03;85.74;95925.91;2075791;28;20054;-58
2022/12/21 15:01:48;;;;;;;7.95;3.03;;;;;;;5.90;85.67;95925.38;2092232;28;20049;-58
2022/12/21 15:03:00;;;;;;;6.43;2.90;;;;;;;5.85;86.13;95932.41;2089322;28;20055;-58
2022/12/21 15:04:10;;;;;;;5.70;2.97;;;;;;;5.81;86.57;95924.84;2086103;28;20497;-58
2022/12/21 15:05:30;;;;;;;5.30;2.70;;;;;;;5.78;87.04;95928.34;2098917;28;20400;-58
2022/12/21 15:06:35;;;;;;;6.63;3.05;;;;;;;5.74;87.29;95927.56;2089752;28;20057;-58
2022/12/21 15:07:45;;;;;;;7.78;3.00;;;;;;;5.74;88.00;95932.72;2084269;28;20124;-58
2022/12/21 15:08:46;;;;;;;4.93;2.50;;;;;;;5.72;87.79;95925.94;2091988;28;20512;-57
2022/12/21 15:09:53;;;;;;;3.95;2.78;;;;;;;5.70;87.40;95930.31;2099633;28;20041;-58
2022/12/21 15:10:55;;;;;;;4.82;2.80;;;;;;;5.72;88.23;95933.66;2090106;28;20049;-58
2022/12/21 15:12:03;;;;;;;6.18;2.67;;;;;;;5.71;88.18;95937.97;2074298;28;20053;-58
2022/12/21 15:13:05;;;;;;;5.15;2.97;;;;;;;5.67;87.77;95932.97;2076078;28;20041;-58
2022/12/21 15:14:13;;;;;;;5.35;2.67;;;;;;;5.62;87.74;95937.41;2082940;28;20041;-57
2022/12/21 15:15:35;;;;;;;5.45;3.25;;;;;;;5.58;88.09;95933.22;2083429;28;20414;-58
2022/12/21 15:16:36;;;;;;;5.78;2.83;;;;;;;5.44;88.12;95919.00;2088564;28;20052;-58
2022/12/21 15:17:37;;;;;;;6.90;3.38;;;;;;;5.51;87.79;95930.84;2082399;28;20057;-58
2022/12/21 15:18:41;;;;;;;5.13;2.92;;;;;;;5.48;87.98;95933.50;2081659;28;20049;-58
2022/12/21 15:19:45;;;;;;;5.82;3.20;;;;;;;5.44;88.28;95934.47;2098805;28;20087;-58
2022/12/21 15:20:47;;;;;;;7.80;2.97;;;;;;;5.36;87.68;95931.25;2099213;28;20436;-58
2022/12/21 15:22:32;;;;;;;5.78;3.05;;;;;;;5.35;88.81;95934.72;2098410;28;20061;-58
2022/12/21 15:23:34;;;;;;;7.88;3.30;;;;;;;5.31;89.00;95933.09;2085409;28;20408;-58
2022/12/21 15:24:36;;;;;;;6.28;3.20;;;;;;;5.25;88.61;95925.56;2098521;28;20332;-58
2022/12/21 15:25:37;;;;;;;7.03;3.25;;;;;;;5.21;89.08;95932.53;2088904;28;20048;-58
2022/12/21 15:27:08;;;;;;;5.28;3.05;;;;;;;5.18;89.07;95929.19;2088949;28;20714;-58
2022/12/21 15:28:21;;;;;;;6.55;2.92;;;;;;;5.05;89.60;95914.09;2096173;28;20048;-60
2022/12/21 15:29:47;;;;;;;5.47;3.15;;;;;;;4.94;89.08;95910.94;2089320;28;20435;-60
2022/12/21 15:30:53;;;;;;;5.93;3.33;;;;;;;4.95;89.95;95924.66;2089500;28;20056;-60
2022/12/21 15:31:57;;;;;;;5.93;3.10;;;;;;;4.92;89.64;95924.72;2082107;28;20037;-60
2022/12/21 15:33:18;;;;;;;7.18;3.60;;;;;;;4.82;89.94;95913.84;2082219;28;20481;-59
2022/12/21 15:34:24;;;;;;;6.05;2.92;;;;;;;4.78;89.81;95914.78;2092093;28;20060;-59
2022/12/21 15:35:43;;;;;;;8.10;3.35;;;;;;;4.77;89.87;95919.09;2081419;28;20053;-59
2022/12/21 15:36:52;;;;;;;4.70;3.13;;;;;;;4.76;90.73;95921.72;2077241;28;20108;-59
2022/12/21 15:37:53;;;;;;;6.57;3.47;;;;;;;4.72;90.48;95920.09;2083498;28;20050;-62
2022/12/21 15:38:54;;;;;;;7.32;3.10;;;;;;;4.74;90.69;95920.91;2098836;28;20048;-62
2022/12/21 15:40:04;;;;;;;7.18;3.67;;;;;;;4.71;90.94;95916.69;2099454;28;20044;-61
2022/12/21 15:41:15;;;;;;;6.85;3.78;;;;;;;4.67;91.36;95917.63;2098220;28;20055;-62
2022/12/21 15:42:26;;;;;;;5.20;3.38;;;;;;;4.63;91.24;95916.03;2091886;28;20052;-62
2022/12/21 15:43:48;;;;;;;5.50;3.60;;;;;;;4.63;91.25;95914.31;2090241;28;20420;-62
2022/12/21 15:45:12;;;;;;;6.15;3.47;;;;;;;4.55;91.76;95912.81;2093919;28;20040;-62
2022/12/21 15:46:32;;;;;;;5.90;3.10;;;;;;;4.46;91.37;95916.44;2090604;28;20048;-61
2022/12/21 15:48:33;;;;;;;9.32;3.80;;;;;;;4.43;92.20;95914.78;2094690;28;20131;-61
2022/12/21 15:49:43;;;;;;;8.07;4.30;;;;;;;4.34;91.98;95914.19;2055966;28;20059;-61
2022/12/21 15:50:44;;;;;;;5.80;3.53;;;;;;;4.33;91.87;95920.19;2076489;28;20041;-62
2022/12/21 15:51:47;;;;;;;7.47;3.22;;;;;;;4.29;92.13;95923.72;2084390;28;20053;-61
2022/12/21 15:52:56;;;;;;;8.25;4.18;;;;;;;4.25;92.14;95920.41;2098446;28;20055;-70
2022/12/21 15:54:12;;;;;;;7.88;3.53;;;;;;;4.25;92.35;95914.38;2099263;28;20044;-70
2022/12/21 15:55:14;;;;;;;5.47;3.83;;;;;;;4.21;92.68;95918.75;2098807;28;20044;-70
2022/12/21 15:56:18;;;;;;;8.93;4.00;;;;;;;4.16;92.58;95918.84;2098375;28;20048;-70
2022/12/21 15:57:19;;;;;;;5.93;3.75;;;;;;;4.12;92.79;95919.81;2097655;28;20035;-69
2022/12/21 15:58:26;;;;;;;6.25;3.70;;;;;;;3.97;92.08;95910.72;2097431;28;20048;-70